All Spectrum Aviation - Van Nuys Airport - KVNY

HOME

Van Nuys Tower Recordings

Condor Squadron KVNY Webcam

Visit our Electronics Store

Condor Squadron Webcam - Van Nuys Airport - KVNY
Picture taken: Tue, 23 May 2017 01:55:21 -0700
YouTube Channel!    Latest Timelapse Movie    Full Size Image    Regular Size Image    

2017/05/23 07:51 KVNY 230751Z 13004KT 10SM CLR 18/12 A2996 RMK AO2 SLP137 T01780122 403330172

HOME

Van Nuys Tower Recordings

Condor Squadron KVNY Webcam

Visit our Electronics Store